Time;durP1;ratioP1;P1;durP2;ratioP2;P2;SDS_P1;SDS_P2;PMS_P1;PMS_P2;Temp;Humidity;BMP_temperature;BMP_pressure;BME280_temperature;BME280_humidity;BME280_pressure;Samples;Min_cycle;Max_cycle;Signal;HPM_P1;HPM_P2
2023/06/26 00:01:20;;;;;;;12.98;11.98;;;24.10;62.00;;;;;;5033119;28;20185;-88
2023/06/26 00:03:49;;;;;;;12.75;11.88;;;24.00;61.60;;;;;;5037416;28;20177;-88
2023/06/26 00:06:15;;;;;;;12.40;11.45;;;24.10;61.80;;;;;;5018170;28;20205;-89
2023/06/26 00:08:40;;;;;;;12.98;12.07;;;24.00;62.10;;;;;;5017096;28;20178;-87
2023/06/26 00:11:06;;;;;;;12.80;11.80;;;23.90;61.90;;;;;;5017465;28;20213;-87
2023/06/26 00:13:31;;;;;;;12.35;11.55;;;23.90;62.00;;;;;;5016565;28;20878;-87
2023/06/26 00:15:57;;;;;;;13.30;12.30;;;23.80;62.50;;;;;;5019844;28;20229;-87
2023/06/26 00:18:23;;;;;;;12.77;11.98;;;23.80;63.10;;;;;;5017375;28;20170;-88
2023/06/26 00:20:49;;;;;;;12.88;11.98;;;23.70;63.40;;;;;;5040461;28;20188;-87
2023/06/26 00:23:17;;;;;;;12.65;11.85;;;23.60;63.40;;;;;;5064815;28;20184;-87
2023/06/26 00:25:43;;;;;;;12.43;11.32;;;23.60;63.50;;;;;;5073227;28;20269;-88
2023/06/26 00:28:09;;;;;;;12.13;11.27;;;23.60;63.60;;;;;;5073839;28;20207;-88
2023/06/26 00:30:35;;;;;;;12.70;11.80;;;23.60;63.40;;;;;;5072735;28;20215;-88
2023/06/26 00:33:00;;;;;;;12.13;11.23;;;23.60;63.90;;;;;;5073957;28;20231;-91
2023/06/26 00:35:26;;;;;;;12.65;11.80;;;23.50;64.00;;;;;;5070442;28;20184;-87
2023/06/26 00:37:52;;;;;;;13.15;12.25;;;23.50;64.20;;;;;;5058965;28;20180;-88
2023/06/26 00:40:17;;;;;;;12.25;11.35;;;23.40;65.10;;;;;;5058076;28;20278;-88
2023/06/26 00:42:43;;;;;;;12.75;11.75;;;23.40;64.70;;;;;;5044151;28;20229;-87
2023/06/26 00:45:09;;;;;;;12.05;11.18;;;23.40;64.70;;;;;;5037419;28;20812;-88
2023/06/26 00:47:35;;;;;;;12.85;11.98;;;23.40;64.30;;;;;;5037266;28;20215;-88
2023/06/26 00:50:01;;;;;;;12.70;11.80;;;23.40;64.10;;;;;;5037796;28;20661;-87
2023/06/26 00:52:27;;;;;;;13.25;12.10;;;23.20;64.40;;;;;;5037817;28;20185;-86
2023/06/26 00:54:53;;;;;;;12.02;11.23;;;23.20;64.40;;;;;;5018106;28;20184;-87
2023/06/26 00:57:19;;;;;;;12.20;11.35;;;23.30;64.20;;;;;;5015759;28;20263;-88
2023/06/26 00:59:44;;;;;;;12.63;11.70;;;23.20;64.40;;;;;;5024117;28;20692;-87
2023/06/26 01:02:10;;;;;;;13.25;11.85;;;23.10;64.80;;;;;;5016036;28;20182;-89
2023/06/26 01:04:36;;;;;;;12.13;11.32;;;23.10;65.00;;;;;;5022173;28;20190;-87
2023/06/26 01:07:02;;;;;;;12.43;11.52;;;23.00;64.50;;;;;;5030552;28;20213;-89
2023/06/26 01:09:29;;;;;;;12.48;11.32;;;23.00;64.50;;;;;;5018334;28;20201;-89
2023/06/26 01:11:54;;;;;;;12.40;11.60;;;23.00;65.10;;;;;;5017133;28;20181;-88
2023/06/26 01:14:20;;;;;;;12.18;11.27;;;22.90;65.70;;;;;;5017500;28;20169;-88
2023/06/26 01:16:49;;;;;;;12.25;11.45;;;23.00;65.10;;;;;;5033964;28;20241;-88
2023/06/26 01:19:25;;;;;;;12.75;11.88;;;23.10;64.90;;;;;;5047420;28;20196;-87
2023/06/26 01:21:58;;;;;;;12.35;11.45;;;23.00;64.70;;;;;;5054318;28;20270;-88
2023/06/26 01:24:29;;;;;;;12.07;11.23;;;22.90;65.60;;;;;;5056928;28;20200;-88
2023/06/26 01:26:54;;;;;;;13.05;12.02;;;22.90;65.40;;;;;;5056128;28;20196;-86
2023/06/26 01:29:23;;;;;;;12.45;11.55;;;22.80;65.20;;;;;;5056850;28;20180;-86
2023/06/26 01:31:49;;;;;;;12.32;11.43;;;22.70;66.00;;;;;;5057733;28;20565;-87
2023/06/26 01:34:18;;;;;;;12.52;11.63;;;22.80;65.50;;;;;;5055995;28;20176;-87
2023/06/26 01:36:45;;;;;;;11.82;11.02;;;22.70;65.60;;;;;;5056895;28;20196;-88
2023/06/26 01:39:15;;;;;;;12.27;11.48;;;22.80;65.30;;;;;;5057882;28;20172;-88
2023/06/26 01:41:41;;;;;;;13.15;12.25;;;22.80;65.10;;;;;;5052814;28;20173;-88
2023/06/26 01:44:06;;;;;;;12.88;11.98;;;22.80;64.60;;;;;;5038158;28;20183;-87
2023/06/26 01:47:01;;;;;;;12.20;11.40;;;22.60;64.90;;;;;;5035970;28;20291;-86
2023/06/26 01:49:58;;;;;;;12.40;11.35;;;22.50;65.20;;;;;;5037517;28;20223;-88
2023/06/26 01:52:43;;;;;;;12.60;11.63;;;22.50;65.60;;;;;;5036716;28;20170;-87
2023/06/26 01:55:27;;;;;;;12.13;11.20;;;22.50;65.50;;;;;;5037179;28;20280;-86
2023/06/26 01:57:56;;;;;;;11.95;10.93;;;22.40;65.70;;;;;;5038743;28;20244;-88
2023/06/26 02:00:24;;;;;;;12.25;11.35;;;22.30;65.90;;;;;;5037119;28;20239;-88
2023/06/26 02:02:49;;;;;;;12.10;11.20;;;22.30;66.10;;;;;;5016082;28;20192;-87
2023/06/26 02:05:15;;;;;;;12.82;11.93;;;22.30;66.00;;;;;;5016447;28;20738;-87
2023/06/26 02:07:41;;;;;;;11.38;10.50;;;22.10;66.50;;;;;;5016977;28;20181;-86
2023/06/26 02:10:07;;;;;;;11.95;11.02;;;22.20;66.20;;;;;;5017206;28;20702;-87
2023/06/26 02:12:35;;;;;;;12.32;11.43;;;22.20;65.80;;;;;;5027659;28;20611;-88
2023/06/26 02:15:02;;;;;;;12.63;11.65;;;22.20;65.50;;;;;;5037912;28;20181;-88
2023/06/26 02:17:27;;;;;;;12.00;11.18;;;22.30;64.30;;;;;;5035547;28;20200;-88
2023/06/26 02:19:53;;;;;;;13.32;12.35;;;22.50;62.80;;;;;;5035951;28;20196;-89
2023/06/26 02:22:18;;;;;;;12.27;11.38;;;22.50;61.50;;;;;;5035992;28;20722;-88
2023/06/26 02:24:44;;;;;;;13.10;11.77;;;22.40;62.30;;;;;;5036426;28;20200;-86
2023/06/26 02:27:10;;;;;;;13.10;12.07;;;22.30;63.20;;;;;;5037096;28;20223;-88
2023/06/26 02:29:36;;;;;;;11.75;10.85;;;22.20;62.90;;;;;;5036941;28;20200;-89
2023/06/26 02:32:01;;;;;;;11.80;10.95;;;22.20;64.40;;;;;;5036841;28;20228;-87
2023/06/26 02:34:27;;;;;;;12.18;11.30;;;22.20;63.80;;;;;;5037047;28;20690;-88
2023/06/26 02:36:56;;;;;;;12.15;11.15;;;22.20;63.80;;;;;;5036994;28;20276;-88
2023/06/26 02:39:21;;;;;;;12.48;11.48;;;22.10;64.90;;;;;;5037454;28;20177;-86
2023/06/26 02:41:47;;;;;;;12.95;12.05;;;22.10;63.70;;;;;;5038195;28;20553;-86
2023/06/26 02:44:14;;;;;;;11.80;10.95;;;22.00;65.00;;;;;;5037984;28;20785;-86
2023/06/26 02:46:40;;;;;;;12.20;11.20;;;21.90;65.00;;;;;;5037207;28;20288;-87
2023/06/26 02:49:06;;;;;;;13.38;12.05;;;21.80;65.50;;;;;;5037169;28;20276;-86
2023/06/26 02:51:35;;;;;;;12.40;11.50;;;21.80;65.10;;;;;;5035411;28;20176;-86
2023/06/26 02:54:00;;;;;;;12.68;11.73;;;21.80;65.30;;;;;;5035828;28;20173;-89
2023/06/26 02:56:29;;;;;;;11.90;11.00;;;21.80;65.10;;;;;;5035784;28;20603;-87
2023/06/26 02:58:56;;;;;;;12.27;11.18;;;21.80;65.20;;;;;;5035611;28;20540;-88
2023/06/26 03:01:21;;;;;;;12.57;11.27;;;21.80;65.50;;;;;;5035213;28;20185;-85
2023/06/26 03:03:47;;;;;;;13.38;12.07;;;21.80;64.90;;;;;;5035876;28;20184;-89
2023/06/26 03:06:13;;;;;;;12.65;11.27;;;21.80;64.90;;;;;;5040041;28;20204;-87
2023/06/26 03:08:40;;;;;;;13.88;12.43;;;21.80;64.90;;;;;;5032373;28;20181;-86
2023/06/26 03:11:07;;;;;;;12.52;11.43;;;21.70;65.00;;;;;;5055129;28;20196;-88
2023/06/26 03:13:34;;;;;;;18.75;11.95;;;21.40;65.60;;;;;;5038397;28;20180;-87
2023/06/26 03:16:00;;;;;;;12.43;11.52;;;21.40;66.10;;;;;;5039255;28;20203;-88
2023/06/26 03:18:26;;;;;;;12.35;11.30;;;21.40;66.00;;;;;;5039563;28;20173;-89
2023/06/26 03:20:54;;;;;;;11.88;11.02;;;21.50;66.00;;;;;;5039200;28;20188;-87
2023/06/26 03:23:20;;;;;;;12.80;11.57;;;21.50;66.10;;;;;;5038359;28;20193;-88
2023/06/26 03:25:46;;;;;;;13.30;12.13;;;21.40;66.20;;;;;;5040087;28;20197;-88
2023/06/26 03:28:12;;;;;;;13.25;11.48;;;21.40;66.60;;;;;;5040085;28;20181;-86
2023/06/26 03:30:39;;;;;;;12.55;11.55;;;21.40;65.90;;;;;;5040532;28;20231;-88
2023/06/26 03:33:04;;;;;;;13.52;12.32;;;21.40;65.80;;;;;;5040396;28;20173;-87
2023/06/26 03:35:30;;;;;;;12.32;11.10;;;21.50;65.70;;;;;;5040610;28;20682;-86
2023/06/26 03:37:56;;;;;;;13.63;12.45;;;21.50;65.50;;;;;;5040407;28;20177;-86
2023/06/26 03:40:22;;;;;;;12.90;11.68;;;21.40;64.80;;;;;;5039526;28;20173;-84
2023/06/26 03:42:47;;;;;;;13.10;11.85;;;21.40;65.50;;;;;;5039432;28;20520;-87
2023/06/26 03:45:13;;;;;;;13.40;12.25;;;21.40;65.40;;;;;;5039408;28;20209;-87
2023/06/26 03:47:39;;;;;;;13.18;11.93;;;21.50;64.60;;;;;;5039292;28;20205;-87
2023/06/26 03:50:05;;;;;;;12.70;11.50;;;21.50;64.50;;;;;;5030150;28;20644;-86
2023/06/26 03:52:30;;;;;;;12.43;11.48;;;21.40;65.20;;;;;;5020093;28;20177;-87
2023/06/26 03:54:57;;;;;;;12.68;11.52;;;21.40;65.50;;;;;;5019774;28;20170;-88
2023/06/26 03:57:23;;;;;;;13.07;11.98;;;21.40;65.00;;;;;;5019960;28;20316;-86
2023/06/26 03:59:50;;;;;;;13.23;11.93;;;21.40;64.90;;;;;;5019780;28;20201;-87
2023/06/26 04:02:15;;;;;;;13.90;12.88;;;21.50;63.50;;;;;;5020047;28;20196;-88
2023/06/26 04:04:41;;;;;;;12.85;11.75;;;21.60;62.30;;;;;;5021412;28;20185;-87
2023/06/26 04:07:07;;;;;;;13.70;12.50;;;21.50;62.60;;;;;;5052152;28;20242;-87
2023/06/26 04:09:32;;;;;;;13.70;12.40;;;21.60;62.00;;;;;;5037332;28;20189;-87
2023/06/26 04:11:58;;;;;;;13.15;12.20;;;21.60;61.20;;;;;;5039213;28;20582;-88
2023/06/26 04:14:23;;;;;;;14.40;13.00;;;21.50;62.30;;;;;;5037936;28;20670;-88
2023/06/26 04:16:49;;;;;;;13.80;12.63;;;21.50;63.50;;;;;;5037235;28;20197;-87
2023/06/26 04:19:15;;;;;;;13.60;12.57;;;21.50;63.20;;;;;;5038146;28;20203;-87
2023/06/26 04:21:41;;;;;;;13.70;12.65;;;21.60;63.20;;;;;;5026038;28;20694;-87
2023/06/26 04:24:06;;;;;;;13.80;12.50;;;21.70;62.80;;;;;;5037555;28;20177;-87
2023/06/26 04:26:32;;;;;;;13.48;12.13;;;21.70;63.40;;;;;;5027826;28;20204;-88
2023/06/26 04:28:59;;;;;;;13.63;12.40;;;21.60;63.20;;;;;;5019120;28;20178;-87
2023/06/26 04:31:25;;;;;;;17.67;13.00;;;21.70;63.20;;;;;;5056891;28;20279;-89
2023/06/26 04:33:50;;;;;;;13.50;12.30;;;21.70;63.00;;;;;;5049797;28;20205;-87
2023/06/26 04:36:17;;;;;;;13.30;12.23;;;21.70;62.60;;;;;;5061144;28;20315;-87
2023/06/26 04:38:43;;;;;;;13.25;12.15;;;21.80;62.40;;;;;;5050952;28;20211;-87
2023/06/26 04:41:09;;;;;;;13.20;12.20;;;21.60;61.20;;;;;;5042892;28;20260;-85
2023/06/26 04:43:34;;;;;;;13.68;12.48;;;21.30;61.10;;;;;;5025691;28;20181;-87
2023/06/26 04:46:00;;;;;;;14.23;13.18;;;21.20;61.20;;;;;;5040162;28;20209;-87
2023/06/26 04:48:29;;;;;;;12.88;11.93;;;21.20;61.60;;;;;;5041212;28;20207;-83
2023/06/26 04:50:55;;;;;;;12.98;11.98;;;21.20;61.70;;;;;;5041560;28;20259;-86
2023/06/26 04:53:22;;;;;;;13.85;12.80;;;21.40;61.80;;;;;;5020210;28;20177;-86
2023/06/26 04:55:49;;;;;;;13.07;11.93;;;21.50;62.10;;;;;;5020303;28;20201;-87
2023/06/26 04:58:16;;;;;;;13.93;12.70;;;21.70;62.10;;;;;;5019939;28;20256;-87
2023/06/26 05:00:44;;;;;;;13.70;12.50;;;21.60;63.10;;;;;;5025113;28;20602;-85
2023/06/26 05:03:14;;;;;;;14.15;12.93;;;21.60;63.30;;;;;;5050229;28;20618;-85
2023/06/26 05:05:40;;;;;;;13.63;12.63;;;21.70;64.20;;;;;;5041877;28;20275;-86
2023/06/26 05:08:26;;;;;;;14.38;12.82;;;21.60;63.80;;;;;;5032606;28;20186;-87
2023/06/26 05:10:53;;;;;;;14.07;12.70;;;21.60;64.30;;;;;;5024103;28;20205;-87
2023/06/26 05:13:19;;;;;;;13.68;12.68;;;21.70;64.80;;;;;;5023637;28;20670;-86
2023/06/26 05:15:46;;;;;;;14.43;13.23;;;21.60;65.20;;;;;;5034622;28;20228;-86
2023/06/26 05:18:12;;;;;;;14.70;13.13;;;21.70;64.80;;;;;;5039167;28;20181;-85
2023/06/26 05:20:38;;;;;;;14.07;13.00;;;21.80;65.70;;;;;;5042982;28;20184;-87
2023/06/26 05:23:05;;;;;;;15.35;14.10;;;21.80;65.20;;;;;;5043417;28;20208;-87
2023/06/26 05:25:34;;;;;;;15.13;13.88;;;21.80;65.30;;;;;;5040788;28;20605;-86
2023/06/26 05:28:01;;;;;;;14.60;13.50;;;21.80;66.00;;;;;;5033567;28;20204;-86
2023/06/26 05:30:27;;;;;;;14.80;13.63;;;21.80;65.30;;;;;;5032619;28;20254;-86
2023/06/26 05:32:54;;;;;;;15.50;14.43;;;21.70;66.40;;;;;;5032760;28;20173;-87
2023/06/26 05:35:24;;;;;;;15.95;14.65;;;21.60;66.20;;;;;;5029543;28;20177;-86
2023/06/26 05:37:51;;;;;;;14.68;13.60;;;21.60;68.10;;;;;;5040826;28;20185;-87
2023/06/26 05:40:17;;;;;;;15.30;14.20;;;21.50;68.50;;;;;;5032880;28;20208;-87
2023/06/26 05:42:43;;;;;;;15.95;14.68;;;21.40;69.00;;;;;;5034872;28;20183;-86
2023/06/26 05:45:10;;;;;;;16.02;14.45;;;21.50;68.50;;;;;;5041588;28;20194;-86
2023/06/26 05:47:36;;;;;;;15.30;14.02;;;21.60;69.20;;;;;;5040570;28;20223;-88
2023/06/26 05:50:03;;;;;;;15.40;14.00;;;21.50;70.20;;;;;;5030606;28;20690;-87
2023/06/26 05:52:29;;;;;;;15.38;14.15;;;21.50;69.80;;;;;;5021274;28;20267;-88
2023/06/26 05:54:58;;;;;;;15.20;14.02;;;21.60;69.80;;;;;;5024964;28;20183;-86
2023/06/26 05:57:24;;;;;;;16.23;14.93;;;21.60;69.50;;;;;;5046075;28;20210;-86
2023/06/26 05:59:51;;;;;;;15.00;13.70;;;21.80;69.80;;;;;;5046961;28;20184;-86
2023/06/26 06:02:16;;;;;;;16.70;15.27;;;21.70;69.90;;;;;;5041997;28;20181;-86
2023/06/26 06:04:42;;;;;;;15.18;13.98;;;21.90;69.90;;;;;;5036163;28;20189;-86
2023/06/26 06:07:07;;;;;;;13.93;12.90;;;21.90;69.50;;;;;;5020524;28;20204;-87
2023/06/26 06:09:33;;;;;;;16.02;14.85;;;21.90;68.90;;;;;;5020837;28;20555;-86
2023/06/26 06:11:59;;;;;;;15.55;14.32;;;22.00;68.50;;;;;;5024238;28;20424;-86
2023/06/26 06:14:25;;;;;;;14.23;13.07;;;22.20;68.30;;;;;;5023687;28;20187;-84
2023/06/26 06:16:51;;;;;;;14.90;13.65;;;22.30;68.00;;;;;;5031346;28;20212;-86
2023/06/26 06:19:16;;;;;;;14.43;13.23;;;22.40;68.80;;;;;;5034508;28;20195;-85
2023/06/26 06:21:43;;;;;;;14.40;12.93;;;22.50;68.60;;;;;;5034864;28;20184;-86
2023/06/26 06:24:09;;;;;;;14.13;12.93;;;22.60;67.70;;;;;;5031648;28;20188;-85
2023/06/26 06:26:35;;;;;;;13.32;12.32;;;22.90;66.50;;;;;;5031325;28;20201;-86
2023/06/26 06:29:01;;;;;;;13.82;12.73;;;23.00;66.40;;;;;;5033568;28;20791;-85
2023/06/26 06:31:28;;;;;;;13.45;12.38;;;23.20;65.00;;;;;;5046435;28;20292;-86
2023/06/26 06:33:54;;;;;;;13.10;12.20;;;23.30;63.90;;;;;;5035087;28;20177;-86
2023/06/26 06:36:20;;;;;;;12.80;11.90;;;23.40;63.40;;;;;;5057464;28;20188;-85
2023/06/26 06:38:49;;;;;;;13.55;12.40;;;23.40;62.70;;;;;;5061417;28;20389;-88
2023/06/26 06:41:15;;;;;;;13.95;12.65;;;23.50;63.10;;;;;;5063475;28;20172;-87
2023/06/26 06:43:41;;;;;;;13.25;12.23;;;23.70;61.70;;;;;;5052788;28;20189;-86
2023/06/26 06:46:06;;;;;;;12.98;11.98;;;23.90;60.90;;;;;;5042140;28;20287;-88
2023/06/26 06:48:32;;;;;;;13.50;12.43;;;23.90;60.50;;;;;;5040663;28;20193;-86
2023/06/26 06:50:58;;;;;;;12.25;11.45;;;24.10;58.60;;;;;;5033071;28;20202;-85
2023/06/26 06:53:23;;;;;;;14.27;13.25;;;24.30;59.00;;;;;;5027408;28;20185;-84
2023/06/26 06:55:49;;;;;;;13.43;12.25;;;24.30;57.20;;;;;;5054593;28;20188;-88
2023/06/26 06:58:22;;;;;;;13.35;12.18;;;24.40;56.80;;;;;;5064444;28;20188;-86
2023/06/26 07:00:48;;;;;;;12.07;11.27;;;24.50;55.50;;;;;;5050392;28;20170;-86
2023/06/26 07:03:14;;;;;;;12.07;11.27;;;24.40;57.20;;;;;;5027604;28;20237;-87
2023/06/26 07:05:43;;;;;;;13.02;12.13;;;24.60;56.20;;;;;;5026211;28;20844;-87
2023/06/26 07:08:09;;;;;;;12.82;11.75;;;24.70;56.00;;;;;;5026391;28;20182;-84
2023/06/26 07:10:34;;;;;;;13.25;12.15;;;24.90;56.70;;;;;;5027198;28;20289;-86
2023/06/26 07:13:00;;;;;;;13.25;12.05;;;24.90;55.40;;;;;;5028047;28;20706;-85
2023/06/26 07:15:26;;;;;;;13.15;11.93;;;25.10;55.60;;;;;;5027186;28;20181;-86
2023/06/26 07:17:52;;;;;;;13.88;12.88;;;25.30;55.20;;;;;;5026449;28;20169;-86
2023/06/26 07:20:18;;;;;;;12.68;11.77;;;25.40;53.70;;;;;;5024575;28;20186;-88
2023/06/26 07:22:44;;;;;;;12.45;11.55;;;25.50;51.40;;;;;;5031104;28;20231;-86
2023/06/26 07:25:10;;;;;;;12.05;11.02;;;25.50;51.40;;;;;;5044941;28;20216;-88
2023/06/26 07:27:37;;;;;;;12.93;11.93;;;25.60;51.10;;;;;;5044708;28;20201;-86
2023/06/26 07:30:03;;;;;;;12.20;11.40;;;25.80;50.10;;;;;;5044349;28;20196;-86
2023/06/26 07:32:29;;;;;;;13.45;12.23;;;25.90;50.80;;;;;;5041845;28;20173;-85
2023/06/26 07:34:54;;;;;;;12.82;11.73;;;26.10;51.90;;;;;;5029562;28;20228;-86
2023/06/26 07:37:20;;;;;;;12.15;11.20;;;26.10;50.40;;;;;;5023056;28;20201;-86
2023/06/26 07:39:45;;;;;;;13.45;12.32;;;26.10;50.70;;;;;;5023331;28;20209;-85
2023/06/26 07:42:11;;;;;;;13.77;12.88;;;26.30;48.30;;;;;;5032181;28;20228;-85
2023/06/26 07:44:37;;;;;;;13.82;12.82;;;26.40;48.80;;;;;;5041229;28;20212;-86
2023/06/26 07:47:03;;;;;;;14.07;13.20;;;26.50;50.40;;;;;;5032036;28;20221;-86
2023/06/26 07:49:29;;;;;;;14.77;13.77;;;26.60;48.60;;;;;;5030116;28;20840;-87
2023/06/26 07:51:54;;;;;;;15.77;14.43;;;26.50;49.30;;;;;;5053219;28;20173;-87
2023/06/26 07:54:22;;;;;;;14.57;13.70;;;26.50;49.30;;;;;;5065074;28;20176;-86
2023/06/26 07:56:58;;;;;;;14.43;13.50;;;26.50;49.60;;;;;;5065415;28;20275;-86
2023/06/26 07:59:25;;;;;;;13.73;12.35;;;26.40;50.60;;;;;;5066045;28;20168;-85
2023/06/26 08:01:52;;;;;;;13.55;12.68;;;26.40;50.60;;;;;;5035105;28;20194;-86
2023/06/26 08:04:22;;;;;;;13.95;13.05;;;26.50;49.90;;;;;;5025681;28;20182;-86
2023/06/26 08:06:49;;;;;;;14.20;13.20;;;26.60;50.20;;;;;;5031092;28;20194;-87
2023/06/26 08:09:15;;;;;;;13.80;12.90;;;26.70;49.50;;;;;;5032504;28;20199;-87
2023/06/26 08:11:41;;;;;;;13.23;12.23;;;26.80;50.30;;;;;;5026334;28;20185;-87
2023/06/26 08:14:07;;;;;;;13.15;11.93;;;26.70;50.10;;;;;;5034100;28;20205;-86
2023/06/26 08:16:32;;;;;;;12.70;11.77;;;26.70;51.00;;;;;;5035528;28;20201;-87
2023/06/26 08:18:58;;;;;;;12.70;11.55;;;26.60;50.60;;;;;;5034877;28;20451;-87
2023/06/26 08:21:23;;;;;;;13.02;12.13;;;26.60;50.50;;;;;;5031693;28;20185;-84
2023/06/26 08:23:49;;;;;;;13.20;12.30;;;26.40;50.60;;;;;;5022407;28;20185;-86
2023/06/26 08:26:14;;;;;;;13.20;12.30;;;26.40;49.80;;;;;;5023198;28;20204;-85
2023/06/26 08:28:40;;;;;;;13.30;12.40;;;26.50;50.60;;;;;;5024488;28;20260;-87
2023/06/26 08:31:06;;;;;;;12.30;11.45;;;26.50;51.50;;;;;;5024868;28;20196;-86
2023/06/26 08:33:31;;;;;;;13.43;12.50;;;26.40;51.20;;;;;;5021951;28;20236;-87
2023/06/26 08:35:57;;;;;;;12.77;11.98;;;26.20;51.50;;;;;;5019514;28;20186;-88
2023/06/26 08:38:23;;;;;;;12.73;11.75;;;26.10;51.80;;;;;;5020764;28;20173;-87
2023/06/26 08:40:49;;;;;;;12.30;11.40;;;26.10;52.90;;;;;;5021039;28;20185;-87
2023/06/26 08:43:14;;;;;;;12.68;11.43;;;26.10;52.80;;;;;;5037127;28;20697;-87
2023/06/26 08:45:40;;;;;;;13.15;12.05;;;26.20;53.10;;;;;;5039433;28;20211;-87
2023/06/26 08:48:09;;;;;;;12.35;11.50;;;26.50;50.70;;;;;;5051946;28;20211;-86
2023/06/26 08:50:38;;;;;;;12.57;11.57;;;26.80;50.80;;;;;;5039452;28;20232;-87
2023/06/26 08:53:18;;;;;;;12.30;11.50;;;27.10;51.90;;;;;;5038721;28;20231;-88
2023/06/26 08:55:44;;;;;;;13.35;12.25;;;27.10;51.30;;;;;;5039333;28;20425;-87
2023/06/26 08:58:12;;;;;;;12.65;11.60;;;27.30;49.30;;;;;;5040289;28;20570;-87
2023/06/26 09:00:38;;;;;;;13.20;12.02;;;27.40;49.20;;;;;;5041322;28;20180;-87
2023/06/26 09:03:04;;;;;;;12.55;11.73;;;27.00;50.60;;;;;;5038578;28;20185;-86
2023/06/26 09:05:31;;;;;;;12.88;11.80;;;27.00;51.20;;;;;;5020896;28;20209;-89
2023/06/26 09:07:58;;;;;;;12.15;11.35;;;27.20;51.10;;;;;;5020112;28;20271;-87
2023/06/26 09:10:24;;;;;;;13.20;12.30;;;27.20;50.70;;;;;;5020038;28;20499;-86
2023/06/26 09:12:50;;;;;;;13.27;12.27;;;27.20;51.30;;;;;;5019655;28;20178;-85
2023/06/26 09:15:18;;;;;;;13.43;12.63;;;27.20;51.40;;;;;;5019248;28;20219;-86
2023/06/26 09:17:44;;;;;;;12.45;11.65;;;27.10;51.20;;;;;;5019583;28;20181;-87
2023/06/26 09:20:14;;;;;;;12.93;11.95;;;27.00;52.10;;;;;;5020305;28;20548;-86
2023/06/26 09:22:42;;;;;;;13.25;12.25;;;26.80;52.80;;;;;;5020292;28;20204;-87
2023/06/26 09:25:09;;;;;;;13.07;12.13;;;27.00;52.20;;;;;;5019635;28;20182;-86
2023/06/26 09:27:38;;;;;;;13.13;12.02;;;26.90;52.10;;;;;;5022332;28;20209;-86
2023/06/26 09:30:06;;;;;;;12.73;11.93;;;27.00;52.80;;;;;;5019689;28;20198;-87
2023/06/26 09:32:37;;;;;;;12.95;12.05;;;27.10;52.50;;;;;;5017870;28;20705;-86
2023/06/26 09:35:03;;;;;;;12.93;12.13;;;27.00;52.50;;;;;;5017976;28;20201;-85
2023/06/26 09:37:29;;;;;;;14.05;13.07;;;27.00;53.50;;;;;;5033840;28;20204;-88
2023/06/26 09:39:55;;;;;;;13.43;12.27;;;27.20;52.90;;;;;;5036438;28;20193;-87
2023/06/26 09:42:21;;;;;;;12.48;11.77;;;27.40;52.60;;;;;;5032678;28;20262;-87
2023/06/26 09:44:47;;;;;;;13.07;12.05;;;27.60;52.00;;;;;;5045041;28;20183;-87
2023/06/26 09:47:16;;;;;;;13.45;12.48;;;27.80;51.30;;;;;;5034554;28;20204;-87
2023/06/26 09:49:42;;;;;;;13.90;12.85;;;28.00;51.00;;;;;;5036709;28;20219;-87
2023/06/26 09:52:10;;;;;;;13.93;12.75;;;28.10;50.90;;;;;;5037799;28;20181;-88
2023/06/26 09:54:36;;;;;;;13.88;12.93;;;28.40;50.50;;;;;;5037620;28;20745;-88
2023/06/26 09:57:13;;;;;;;13.52;12.52;;;28.40;50.30;;;;;;5039603;28;20203;-88
2023/06/26 09:59:40;;;;;;;14.18;12.77;;;28.40;49.70;;;;;;5037212;28;20691;-88
2023/06/26 10:02:06;;;;;;;14.18;13.07;;;28.50;49.90;;;;;;5037345;28;20173;-87
2023/06/26 10:04:32;;;;;;;13.52;12.63;;;28.60;49.10;;;;;;5037521;28;20185;-88
2023/06/26 10:07:04;;;;;;;13.52;12.73;;;28.50;49.60;;;;;;5029109;28;20234;-86
2023/06/26 10:09:31;;;;;;;15.88;14.52;;;28.50;49.50;;;;;;5019323;28;20177;-87
2023/06/26 10:11:59;;;;;;;13.52;12.73;;;28.50;49.30;;;;;;5019754;28;20249;-88
2023/06/26 10:14:35;;;;;;;15.52;14.63;;;28.80;49.00;;;;;;5046286;28;20212;-87
2023/06/26 10:17:06;;;;;;;20.15;18.90;;;29.20;48.30;;;;;;5052892;28;20212;-87
2023/06/26 10:19:33;;;;;;;19.08;17.92;;;29.20;46.70;;;;;;5030867;28;20185;-86
2023/06/26 10:21:59;;;;;;;16.27;15.23;;;29.50;46.50;;;;;;5017733;28;20564;-86
2023/06/26 10:24:28;;;;;;;16.33;15.32;;;29.50;47.10;;;;;;5017129;28;20170;-87
2023/06/26 10:27:01;;;;;;;21.58;20.27;;;29.60;47.10;;;;;;5017967;28;20602;-87
2023/06/26 10:29:28;;;;;;;18.58;17.58;;;29.80;44.60;;;;;;5014167;28;20169;-88
2023/06/26 10:31:57;;;;;;;20.13;18.92;;;29.70;44.40;;;;;;5014191;28;20170;-86
2023/06/26 10:34:23;;;;;;;18.65;17.55;;;29.70;44.00;;;;;;5025683;28;20185;-87
2023/06/26 10:37:03;;;;;;;20.80;19.63;;;29.60;46.00;;;;;;5034394;28;20195;-88
2023/06/26 10:39:45;;;;;;;19.00;18.00;;;29.30;44.50;;;;;;5036892;28;20222;-86
2023/06/26 10:42:11;;;;;;;22.25;21.20;;;29.20;45.20;;;;;;5035289;28;20404;-87
2023/06/26 10:44:44;;;;;;;20.17;19.08;;;29.30;44.30;;;;;;5033362;28;20552;-86
2023/06/26 10:47:32;;;;;;;18.00;16.98;;;29.10;44.90;;;;;;5032360;28;20201;-87
2023/06/26 10:50:19;;;;;;;18.48;17.27;;;29.00;45.50;;;;;;5034297;28;20203;-86
2023/06/26 10:52:45;;;;;;;19.77;18.77;;;29.50;45.10;;;;;;5041983;28;20183;-86
2023/06/26 10:55:11;;;;;;;24.92;23.73;;;30.10;43.60;;;;;;5054771;28;20181;-87
2023/06/26 10:57:38;;;;;;;23.27;22.08;;;30.20;42.70;;;;;;5053585;28;20192;-87
2023/06/26 11:00:11;;;;;;;21.10;20.05;;;30.00;42.80;;;;;;5055052;28;20184;-85
2023/06/26 11:02:50;;;;;;;18.45;17.40;;;29.70;44.00;;;;;;5032135;28;20252;-85
2023/06/26 11:05:32;;;;;;;17.77;16.65;;;29.20;45.30;;;;;;5016754;28;20177;-87
2023/06/26 11:08:07;;;;;;;17.42;16.52;;;29.30;44.70;;;;;;5021404;28;20181;-87
2023/06/26 11:11:02;;;;;;;22.60;21.27;;;29.60;44.10;;;;;;5029486;28;20204;-87
2023/06/26 11:13:29;;;;;;;24.60;23.05;;;30.00;43.50;;;;;;5022533;28;20221;-86
2023/06/26 11:15:56;;;;;;;21.85;20.70;;;30.30;41.70;;;;;;5033159;28;20221;-86
2023/06/26 11:18:23;;;;;;;22.70;21.60;;;30.80;40.00;;;;;;5014753;28;20185;-86
2023/06/26 11:20:49;;;;;;;20.05;18.98;;;30.70;39.90;;;;;;5019640;28;20241;-86
2023/06/26 11:23:22;;;;;;;20.27;19.17;;;30.80;38.80;;;;;;5032940;28;20180;-86
2023/06/26 11:25:47;;;;;;;18.92;17.92;;;30.70;38.60;;;;;;5039536;28;20205;-87
2023/06/26 11:28:13;;;;;;;20.92;19.80;;;30.90;38.10;;;;;;5024747;28;20667;-86
2023/06/26 11:30:41;;;;;;;18.48;17.48;;;30.90;38.90;;;;;;5041385;28;20192;-86
2023/06/26 11:33:10;;;;;;;18.58;17.65;;;31.00;38.30;;;;;;5037073;28;20458;-87
2023/06/26 11:35:37;;;;;;;19.08;17.95;;;31.00;38.00;;;;;;5043465;28;20181;-86
2023/06/26 11:38:06;;;;;;;18.40;17.35;;;31.10;37.60;;;;;;5050256;28;20164;-87
2023/06/26 11:40:36;;;;;;;18.55;17.30;;;31.20;37.30;;;;;;5045119;28;20185;-88
2023/06/26 11:43:05;;;;;;;18.48;17.55;;;31.40;37.60;;;;;;5039477;28;20246;-88
2023/06/26 11:45:32;;;;;;;20.75;19.38;;;31.70;36.00;;;;;;5028045;28;20272;-87
2023/06/26 11:47:59;;;;;;;21.17;19.88;;;31.80;34.10;;;;;;5027594;28;20859;-87
2023/06/26 11:50:26;;;;;;;20.73;19.63;;;31.60;34.60;;;;;;5025998;28;20575;-86
2023/06/26 11:52:59;;;;;;;20.60;19.55;;;31.90;34.40;;;;;;5021560;28;20181;-87
2023/06/26 11:55:26;;;;;;;20.08;18.88;;;31.80;34.20;;;;;;5028358;28;20313;-85
2023/06/26 11:57:56;;;;;;;20.67;19.58;;;31.80;34.50;;;;;;5038239;28;20453;-87
2023/06/26 12:00:22;;;;;;;21.63;20.42;;;31.60;34.20;;;;;;5032816;28;20182;-86
2023/06/26 12:02:49;;;;;;;21.02;20.02;;;31.70;34.10;;;;;;5017102;28;20177;-87
2023/06/26 12:05:16;;;;;;;20.65;19.55;;;31.80;33.40;;;;;;5015382;28;20181;-87
2023/06/26 12:07:47;;;;;;;20.40;19.30;;;31.70;33.30;;;;;;5017394;28;20194;-87
2023/06/26 12:10:15;;;;;;;19.88;18.85;;;31.50;33.40;;;;;;5017260;28;20251;-86
2023/06/26 12:12:40;;;;;;;19.92;18.92;;;31.90;32.80;;;;;;5021747;28;20315;-87
2023/06/26 12:15:14;;;;;;;19.23;18.30;;;31.70;32.60;;;;;;5036148;28;20220;-86
2023/06/26 12:17:39;;;;;;;19.23;18.27;;;31.60;32.50;;;;;;5037488;28;20271;-87
2023/06/26 12:20:07;;;;;;;19.13;18.10;;;31.80;31.60;;;;;;5040656;28;20294;-88
2023/06/26 12:22:36;;;;;;;18.83;18.02;;;31.60;32.20;;;;;;5049023;28;20686;-87
2023/06/26 12:25:02;;;;;;;18.80;17.90;;;31.60;32.60;;;;;;5054444;28;20658;-86
2023/06/26 12:27:28;;;;;;;18.33;17.35;;;31.30;32.30;;;;;;5046038;28;20303;-87
2023/06/26 12:29:54;;;;;;;19.58;18.10;;;31.60;32.80;;;;;;5034678;28;20197;-89